Highworth, United Kingdom
Current Conditions -  °F | °C
As of 6:06 AM on Sunday 21 Dec 2014 (Local Time) from EGVA Reporting Station
Haze Haze  
Wind Chill: 38°   Ceiling: 700
Heat Index: 45°   Visibility: 6mi
Dew Point: 43°   Wind: 13mph
Humidity: 93%   Direction: 220°SW
Pressure: 30.33"   Gusts: NA
Location:  51.63°N, 1.71°W
Report Text: EGVA 210606Z AUTO 22011KT 9000 UP BR OVC007 07/06 A3033 RMK AO2 OVC V BKN
Loading
Personal Weather Stations






























Interactive Weather Map New forecast layout! Learn more

10-Day Weather Forecast

Advertisements
Track Severe Weather on mobile